sensor_id;sensor_type;location;lat;lon;timestamp;pressure;altitude;pressure_sealevel;temperature;humidity
74079;BME280;62437;51.544;-3.276;2023-07-16T00:02:14;99753.38;;;12.62;69.79
74079;BME280;62437;51.544;-3.276;2023-07-16T00:04:40;99750.42;;;12.31;70.76
74079;BME280;62437;51.544;-3.276;2023-07-16T00:07:06;99754.51;;;13.31;68.19
74079;BME280;62437;51.544;-3.276;2023-07-16T00:09:31;99753.21;;;13.71;65.47
74079;BME280;62437;51.544;-3.276;2023-07-16T00:11:57;99751.20;;;14.52;64.00
74079;BME280;62437;51.544;-3.276;2023-07-16T00:14:22;99759.86;;;12.77;69.37
74079;BME280;62437;51.544;-3.276;2023-07-16T00:16:48;99765.20;;;12.77;69.16
74079;BME280;62437;51.544;-3.276;2023-07-16T00:19:14;99762.16;;;12.86;67.83
74079;BME280;62437;51.544;-3.276;2023-07-16T00:21:39;99765.76;;;12.60;69.53
74079;BME280;62437;51.544;-3.276;2023-07-16T00:24:05;99760.85;;;12.19;70.02
74079;BME280;62437;51.544;-3.276;2023-07-16T00:26:30;99760.75;;;12.41;68.93
74079;BME280;62437;51.544;-3.276;2023-07-16T00:28:56;99754.97;;;14.14;63.78
74079;BME280;62437;51.544;-3.276;2023-07-16T00:31:22;99770.34;;;12.57;68.49
74079;BME280;62437;51.544;-3.276;2023-07-16T00:33:47;99768.56;;;12.96;67.64
74079;BME280;62437;51.544;-3.276;2023-07-16T00:36:13;99773.07;;;14.91;59.48
74079;BME280;62437;51.544;-3.276;2023-07-16T00:38:38;99778.50;;;13.50;65.83
74079;BME280;62437;51.544;-3.276;2023-07-16T00:41:04;99775.59;;;14.27;62.02
74079;BME280;62437;51.544;-3.276;2023-07-16T00:43:29;99783.47;;;13.94;65.73
74079;BME280;62437;51.544;-3.276;2023-07-16T00:45:55;99787.69;;;11.52;71.73
74079;BME280;62437;51.544;-3.276;2023-07-16T00:48:21;99789.01;;;12.98;66.36
74079;BME280;62437;51.544;-3.276;2023-07-16T00:50:46;99789.89;;;12.67;69.04
74079;BME280;62437;51.544;-3.276;2023-07-16T00:53:12;99789.93;;;13.87;62.73
74079;BME280;62437;51.544;-3.276;2023-07-16T00:55:38;99798.10;;;14.20;61.33
74079;BME280;62437;51.544;-3.276;2023-07-16T00:58:06;99796.54;;;14.79;61.44
74079;BME280;62437;51.544;-3.276;2023-07-16T01:00:29;99801.59;;;13.16;68.90
74079;BME280;62437;51.544;-3.276;2023-07-16T01:02:55;99792.29;;;13.70;63.87
74079;BME280;62437;51.544;-3.276;2023-07-16T01:05:20;99793.02;;;13.97;62.94
74079;BME280;62437;51.544;-3.276;2023-07-16T01:07:53;99802.41;;;14.20;63.12
74079;BME280;62437;51.544;-3.276;2023-07-16T01:10:11;99808.37;;;14.27;63.22
74079;BME280;62437;51.544;-3.276;2023-07-16T01:12:37;99810.94;;;13.42;64.00
74079;BME280;62437;51.544;-3.276;2023-07-16T01:15:04;99807.86;;;13.33;65.16
74079;BME280;62437;51.544;-3.276;2023-07-16T01:17:28;99800.17;;;14.26;60.37
74079;BME280;62437;51.544;-3.276;2023-07-16T01:19:54;99807.08;;;14.19;61.06
74079;BME280;62437;51.544;-3.276;2023-07-16T01:22:40;99807.22;;;12.73;67.05
74079;BME280;62437;51.544;-3.276;2023-07-16T01:27:27;99810.14;;;12.19;67.81
74079;BME280;62437;51.544;-3.276;2023-07-16T01:29:39;99816.21;;;13.51;63.51
74079;BME280;62437;51.544;-3.276;2023-07-16T01:32:04;99808.66;;;11.91;68.05
74079;BME280;62437;51.544;-3.276;2023-07-16T01:34:29;99818.34;;;11.83;70.14
74079;BME280;62437;51.544;-3.276;2023-07-16T01:36:53;99815.87;;;11.89;69.23
74079;BME280;62437;51.544;-3.276;2023-07-16T01:39:19;99820.01;;;13.39;65.03
74079;BME280;62437;51.544;-3.276;2023-07-16T01:41:44;99821.93;;;13.59;64.60
74079;BME280;62437;51.544;-3.276;2023-07-16T01:44:10;99826.20;;;12.98;65.40
74079;BME280;62437;51.544;-3.276;2023-07-16T01:46:37;99827.66;;;13.63;64.50
74079;BME280;62437;51.544;-3.276;2023-07-16T01:49:01;99825.30;;;14.07;61.39
74079;BME280;62437;51.544;-3.276;2023-07-16T01:51:27;99824.07;;;13.86;61.94
74079;BME280;62437;51.544;-3.276;2023-07-16T01:53:52;99826.20;;;14.00;61.11
74079;BME280;62437;51.544;-3.276;2023-07-16T01:56:18;99829.77;;;13.64;64.19
74079;BME280;62437;51.544;-3.276;2023-07-16T01:58:44;99829.66;;;12.47;67.24
74079;BME280;62437;51.544;-3.276;2023-07-16T02:01:09;99828.86;;;12.51;66.59
74079;BME280;62437;51.544;-3.276;2023-07-16T02:03:35;99833.34;;;13.06;65.99
74079;BME280;62437;51.544;-3.276;2023-07-16T02:06:00;99819.67;;;12.04;67.91
74079;BME280;62437;51.544;-3.276;2023-07-16T02:08:26;99831.10;;;11.92;70.84
74079;BME280;62437;51.544;-3.276;2023-07-16T02:10:51;99832.98;;;13.80;63.45
74079;BME280;62437;51.544;-3.276;2023-07-16T02:13:17;99834.15;;;14.77;59.27
74079;BME280;62437;51.544;-3.276;2023-07-16T02:15:43;99841.30;;;14.28;61.85
74079;BME280;62437;51.544;-3.276;2023-07-16T02:18:09;99840.02;;;12.42;66.98
74079;BME280;62437;51.544;-3.276;2023-07-16T02:20:34;99838.09;;;12.98;65.70
74079;BME280;62437;51.544;-3.276;2023-07-16T02:23:00;99830.71;;;14.88;60.57
74079;BME280;62437;51.544;-3.276;2023-07-16T02:25:25;99838.90;;;14.20;61.37
74079;BME280;62437;51.544;-3.276;2023-07-16T02:27:51;99842.62;;;13.46;63.36
74079;BME280;62437;51.544;-3.276;2023-07-16T02:30:17;99844.86;;;14.41;60.60
74079;BME280;62437;51.544;-3.276;2023-07-16T02:32:42;99848.60;;;14.46;60.82
74079;BME280;62437;51.544;-3.276;2023-07-16T02:35:08;99849.78;;;12.81;66.84
74079;BME280;62437;51.544;-3.276;2023-07-16T02:37:34;99843.67;;;14.34;60.50
74079;BME280;62437;51.544;-3.276;2023-07-16T02:39:59;99847.87;;;13.72;63.95
74079;BME280;62437;51.544;-3.276;2023-07-16T02:42:25;99848.43;;;12.46;68.41
74079;BME280;62437;51.544;-3.276;2023-07-16T02:44:50;99848.34;;;13.38;64.04
74079;BME280;62437;51.544;-3.276;2023-07-16T02:47:16;99847.38;;;13.93;61.53
74079;BME280;62437;51.544;-3.276;2023-07-16T02:49:41;99849.78;;;13.47;66.44
74079;BME280;62437;51.544;-3.276;2023-07-16T02:52:08;99848.93;;;13.89;60.99
74079;BME280;62437;51.544;-3.276;2023-07-16T02:54:34;99854.64;;;12.97;67.09
74079;BME280;62437;51.544;-3.276;2023-07-16T02:56:58;99852.30;;;11.99;67.52
74079;BME280;62437;51.544;-3.276;2023-07-16T02:59:24;99856.06;;;12.77;67.45
74079;BME280;62437;51.544;-3.276;2023-07-16T03:01:50;99854.05;;;12.73;67.22
74079;BME280;62437;51.544;-3.276;2023-07-16T03:04:15;99855.85;;;13.16;65.72
74079;BME280;62437;51.544;-3.276;2023-07-16T03:06:41;99849.89;;;12.40;67.62
74079;BME280;62437;51.544;-3.276;2023-07-16T03:09:07;99852.97;;;13.69;62.38
74079;BME280;62437;51.544;-3.276;2023-07-16T03:11:32;99855.99;;;13.43;62.78
74079;BME280;62437;51.544;-3.276;2023-07-16T03:13:58;99860.38;;;12.71;67.62
74079;BME280;62437;51.544;-3.276;2023-07-16T03:16:23;99868.94;;;12.33;69.15
74079;BME280;62437;51.544;-3.276;2023-07-16T03:18:49;99871.31;;;13.80;63.27
74079;BME280;62437;51.544;-3.276;2023-07-16T03:21:15;99877.68;;;13.79;60.91
74079;BME280;62437;51.544;-3.276;2023-07-16T03:23:40;99890.86;;;14.06;62.51
74079;BME280;62437;51.544;-3.276;2023-07-16T03:26:06;99888.87;;;13.99;62.26
74079;BME280;62437;51.544;-3.276;2023-07-16T03:28:32;99887.10;;;13.12;65.60
74079;BME280;62437;51.544;-3.276;2023-07-16T03:30:57;99889.10;;;14.15;61.24
74079;BME280;62437;51.544;-3.276;2023-07-16T03:33:23;99892.24;;;13.64;65.40
74079;BME280;62437;51.544;-3.276;2023-07-16T03:35:49;99887.03;;;15.27;56.63
74079;BME280;62437;51.544;-3.276;2023-07-16T03:38:14;99896.67;;;12.72;67.05
74079;BME280;62437;51.544;-3.276;2023-07-16T03:40:41;99901.69;;;13.53;64.46
74079;BME280;62437;51.544;-3.276;2023-07-16T03:43:05;99905.04;;;14.89;58.93
74079;BME280;62437;51.544;-3.276;2023-07-16T03:45:31;99904.68;;;14.77;58.97
74079;BME280;62437;51.544;-3.276;2023-07-16T03:47:56;99911.73;;;14.37;63.37
74079;BME280;62437;51.544;-3.276;2023-07-16T03:50:22;99911.46;;;14.81;60.50
74079;BME280;62437;51.544;-3.276;2023-07-16T03:52:48;99917.17;;;14.49;61.28
74079;BME280;62437;51.544;-3.276;2023-07-16T03:55:13;99918.33;;;14.44;60.28
74079;BME280;62437;51.544;-3.276;2023-07-16T03:57:39;99920.02;;;14.08;60.10
74079;BME280;62437;51.544;-3.276;2023-07-16T04:00:05;99926.64;;;13.94;64.02
74079;BME280;62437;51.544;-3.276;2023-07-16T04:02:30;99927.78;;;14.39;63.51
74079;BME280;62437;51.544;-3.276;2023-07-16T04:04:55;99926.75;;;14.83;60.13
74079;BME280;62437;51.544;-3.276;2023-07-16T04:07:21;99925.81;;;13.54;64.35
74079;BME280;62437;51.544;-3.276;2023-07-16T04:09:47;99926.34;;;13.87;61.20
74079;BME280;62437;51.544;-3.276;2023-07-16T04:12:12;99933.18;;;12.77;68.43
74079;BME280;62437;51.544;-3.276;2023-07-16T04:14:38;99940.94;;;14.24;61.86
74079;BME280;62437;51.544;-3.276;2023-07-16T04:17:04;99936.27;;;14.67;61.14
74079;BME280;62437;51.544;-3.276;2023-07-16T04:19:30;99947.65;;;14.65;59.64
74079;BME280;62437;51.544;-3.276;2023-07-16T04:21:55;99951.89;;;12.63;68.97
74079;BME280;62437;51.544;-3.276;2023-07-16T04:24:20;99954.51;;;12.82;69.09
74079;BME280;62437;51.544;-3.276;2023-07-16T04:26:46;99954.09;;;13.65;65.88
74079;BME280;62437;51.544;-3.276;2023-07-16T04:29:12;99959.21;;;15.37;57.15
74079;BME280;62437;51.544;-3.276;2023-07-16T04:31:37;99964.66;;;13.26;67.22
74079;BME280;62437;51.544;-3.276;2023-07-16T04:34:03;99965.52;;;12.92;67.17
74079;BME280;62437;51.544;-3.276;2023-07-16T04:36:28;99970.96;;;13.85;64.65
74079;BME280;62437;51.544;-3.276;2023-07-16T04:38:54;99972.42;;;12.69;70.12
74079;BME280;62437;51.544;-3.276;2023-07-16T04:41:20;99973.20;;;13.70;66.75
74079;BME280;62437;51.544;-3.276;2023-07-16T04:43:45;99972.22;;;14.98;59.00
74079;BME280;62437;51.544;-3.276;2023-07-16T04:46:11;99977.70;;;15.27;59.95
74079;BME280;62437;51.544;-3.276;2023-07-16T04:48:36;99981.24;;;14.26;62.12
74079;BME280;62437;51.544;-3.276;2023-07-16T04:51:02;99982.12;;;14.62;59.99
74079;BME280;62437;51.544;-3.276;2023-07-16T04:53:28;99984.24;;;12.68;68.61
74079;BME280;62437;51.544;-3.276;2023-07-16T04:55:53;99988.14;;;12.52;71.62
74079;BME280;62437;51.544;-3.276;2023-07-16T04:58:19;99991.69;;;13.01;69.98
74079;BME280;62437;51.544;-3.276;2023-07-16T05:00:45;99999.08;;;12.58;70.38
74079;BME280;62437;51.544;-3.276;2023-07-16T05:03:11;100000.21;;;12.37;71.40
74079;BME280;62437;51.544;-3.276;2023-07-16T05:05:36;100002.95;;;12.13;72.34
74079;BME280;62437;51.544;-3.276;2023-07-16T05:08:01;100010.92;;;12.07;71.42
74079;BME280;62437;51.544;-3.276;2023-07-16T05:10:27;100012.41;;;13.16;69.66
74079;BME280;62437;51.544;-3.276;2023-07-16T05:12:53;100017.05;;;13.86;65.91
74079;BME280;62437;51.544;-3.276;2023-07-16T05:15:19;100018.65;;;13.40;68.04
74079;BME280;62437;51.544;-3.276;2023-07-16T05:17:44;100022.22;;;12.55;69.61
74079;BME280;62437;51.544;-3.276;2023-07-16T05:20:10;100021.27;;;13.49;64.97
74079;BME280;62437;51.544;-3.276;2023-07-16T05:22:35;100025.09;;;13.71;67.19
74079;BME280;62437;51.544;-3.276;2023-07-16T05:25:01;100030.98;;;14.72;62.35
74079;BME280;62437;51.544;-3.276;2023-07-16T05:27:27;100033.07;;;13.07;68.47
74079;BME280;62437;51.544;-3.276;2023-07-16T05:29:52;100037.51;;;14.60;60.55
74079;BME280;62437;51.544;-3.276;2023-07-16T05:32:17;100037.08;;;13.65;65.78
74079;BME280;62437;51.544;-3.276;2023-07-16T05:34:43;100038.28;;;13.25;68.84
74079;BME280;62437;51.544;-3.276;2023-07-16T05:37:09;100041.26;;;14.18;61.31
74079;BME280;62437;51.544;-3.276;2023-07-16T05:39:34;100040.78;;;14.25;62.85
74079;BME280;62437;51.544;-3.276;2023-07-16T05:42:00;100043.60;;;14.04;65.83
74079;BME280;62437;51.544;-3.276;2023-07-16T05:44:25;100044.99;;;13.64;66.94
74079;BME280;62437;51.544;-3.276;2023-07-16T05:46:51;100043.05;;;14.11;63.91
74079;BME280;62437;51.544;-3.276;2023-07-16T05:49:17;100045.43;;;12.66;70.11
74079;BME280;62437;51.544;-3.276;2023-07-16T05:51:42;100056.17;;;12.02;71.71
74079;BME280;62437;51.544;-3.276;2023-07-16T05:54:08;100059.33;;;12.08;71.47
74079;BME280;62437;51.544;-3.276;2023-07-16T05:56:34;100061.53;;;11.79;73.19
74079;BME280;62437;51.544;-3.276;2023-07-16T05:58:59;100066.82;;;13.45;67.92
74079;BME280;62437;51.544;-3.276;2023-07-16T06:01:25;100073.76;;;12.23;71.56
74079;BME280;62437;51.544;-3.276;2023-07-16T06:03:50;100071.41;;;13.07;68.29
74079;BME280;62437;51.544;-3.276;2023-07-16T06:06:16;100072.17;;;12.56;71.10
74079;BME280;62437;51.544;-3.276;2023-07-16T06:08:42;100075.11;;;13.51;67.48
74079;BME280;62437;51.544;-3.276;2023-07-16T06:11:07;100078.31;;;12.44;70.93
74079;BME280;62437;51.544;-3.276;2023-07-16T06:13:33;100084.38;;;12.75;70.14
74079;BME280;62437;51.544;-3.276;2023-07-16T06:15:58;100088.39;;;13.29;68.94
74079;BME280;62437;51.544;-3.276;2023-07-16T06:18:24;100086.20;;;14.75;62.53
74079;BME280;62437;51.544;-3.276;2023-07-16T06:20:50;100095.85;;;13.14;69.84
74079;BME280;62437;51.544;-3.276;2023-07-16T06:23:15;100101.51;;;13.26;69.81
74079;BME280;62437;51.544;-3.276;2023-07-16T06:25:41;100102.90;;;13.42;67.87
74079;BME280;62437;51.544;-3.276;2023-07-16T06:28:06;100101.68;;;12.95;70.85
74079;BME280;62437;51.544;-3.276;2023-07-16T06:30:32;100111.51;;;12.96;71.53
74079;BME280;62437;51.544;-3.276;2023-07-16T06:32:58;100113.62;;;12.50;73.18
74079;BME280;62437;51.544;-3.276;2023-07-16T06:35:23;100115.84;;;12.39;73.66
74079;BME280;62437;51.544;-3.276;2023-07-16T06:37:49;100116.30;;;14.60;63.66
74079;BME280;62437;51.544;-3.276;2023-07-16T06:40:15;100122.95;;;13.09;70.29
74079;BME280;62437;51.544;-3.276;2023-07-16T06:42:40;100126.25;;;12.32;74.42
74079;BME280;62437;51.544;-3.276;2023-07-16T06:45:07;100123.28;;;13.23;71.74
74079;BME280;62437;51.544;-3.276;2023-07-16T06:47:31;100133.96;;;12.70;73.85
74079;BME280;62437;51.544;-3.276;2023-07-16T06:49:57;100134.61;;;13.83;69.84
74079;BME280;62437;51.544;-3.276;2023-07-16T06:52:23;100142.65;;;14.33;69.73
74079;BME280;62437;51.544;-3.276;2023-07-16T06:54:48;100144.59;;;13.34;70.89
74079;BME280;62437;51.544;-3.276;2023-07-16T06:57:14;100146.16;;;12.65;74.01
74079;BME280;62437;51.544;-3.276;2023-07-16T06:59:39;100146.26;;;12.44;73.96
74079;BME280;62437;51.544;-3.276;2023-07-16T07:02:06;100147.88;;;12.58;73.63
74079;BME280;62437;51.544;-3.276;2023-07-16T07:04:31;100158.99;;;12.32;73.23
74079;BME280;62437;51.544;-3.276;2023-07-16T07:06:56;100164.02;;;11.97;74.82
74079;BME280;62437;51.544;-3.276;2023-07-16T07:09:22;100173.93;;;11.62;76.96
74079;BME280;62437;51.544;-3.276;2023-07-16T07:11:47;100166.81;;;13.93;70.19
74079;BME280;62437;51.544;-3.276;2023-07-16T07:14:13;100171.16;;;13.23;71.77
74079;BME280;62437;51.544;-3.276;2023-07-16T07:16:38;100169.19;;;13.40;70.16
74079;BME280;62437;51.544;-3.276;2023-07-16T07:19:04;100177.69;;;13.29;73.97
74079;BME280;62437;51.544;-3.276;2023-07-16T07:21:30;100178.10;;;12.20;75.92
74079;BME280;62437;51.544;-3.276;2023-07-16T07:23:55;100184.81;;;11.98;78.89
74079;BME280;62437;51.544;-3.276;2023-07-16T07:26:21;100184.79;;;12.25;75.00
74079;BME280;62437;51.544;-3.276;2023-07-16T07:28:46;100187.99;;;11.78;78.27
74079;BME280;62437;51.544;-3.276;2023-07-16T07:31:12;100192.50;;;12.19;78.10
74079;BME280;62437;51.544;-3.276;2023-07-16T07:33:38;100190.85;;;12.66;74.83
74079;BME280;62437;51.544;-3.276;2023-07-16T07:36:04;100195.44;;;13.23;73.84
74079;BME280;62437;51.544;-3.276;2023-07-16T07:38:29;100195.71;;;12.66;75.15
74079;BME280;62437;51.544;-3.276;2023-07-16T07:40:54;100204.71;;;13.05;73.35
74079;BME280;62437;51.544;-3.276;2023-07-16T07:43:20;100210.02;;;13.53;72.47
74079;BME280;62437;51.544;-3.276;2023-07-16T07:45:45;100213.64;;;12.77;75.71
74079;BME280;62437;51.544;-3.276;2023-07-16T07:48:11;100212.88;;;12.71;76.02
74079;BME280;62437;51.544;-3.276;2023-07-16T07:50:37;100211.37;;;13.29;73.03
74079;BME280;62437;51.544;-3.276;2023-07-16T07:53:02;100217.59;;;12.47;75.20
74079;BME280;62437;51.544;-3.276;2023-07-16T07:55:28;100216.47;;;13.21;73.77
74079;BME280;62437;51.544;-3.276;2023-07-16T07:57:54;100219.59;;;12.94;73.73
74079;BME280;62437;51.544;-3.276;2023-07-16T08:00:20;100218.57;;;13.67;71.76
74079;BME280;62437;51.544;-3.276;2023-07-16T08:02:45;100217.61;;;13.43;73.15
74079;BME280;62437;51.544;-3.276;2023-07-16T08:05:10;100218.11;;;15.31;65.63
74079;BME280;62437;51.544;-3.276;2023-07-16T08:07:36;100216.26;;;15.13;67.76
74079;BME280;62437;51.544;-3.276;2023-07-16T08:10:02;100218.85;;;13.54;74.35
74079;BME280;62437;51.544;-3.276;2023-07-16T08:12:27;100213.39;;;14.69;71.10
74079;BME280;62437;51.544;-3.276;2023-07-16T08:14:53;100223.32;;;13.18;74.40
74079;BME280;62437;51.544;-3.276;2023-07-16T08:17:18;100229.47;;;12.93;78.28
74079;BME280;62437;51.544;-3.276;2023-07-16T08:19:44;100231.34;;;13.72;74.56
74079;BME280;62437;51.544;-3.276;2023-07-16T08:22:09;100234.71;;;13.16;72.14
74079;BME280;62437;51.544;-3.276;2023-07-16T08:24:35;100238.38;;;13.27;74.45
74079;BME280;62437;51.544;-3.276;2023-07-16T08:27:01;100249.53;;;12.83;75.86
74079;BME280;62437;51.544;-3.276;2023-07-16T08:29:26;100244.27;;;12.93;76.88
74079;BME280;62437;51.544;-3.276;2023-07-16T08:31:52;100252.22;;;12.90;77.53
74079;BME280;62437;51.544;-3.276;2023-07-16T08:34:18;100253.19;;;13.38;74.34
74079;BME280;62437;51.544;-3.276;2023-07-16T08:36:43;100251.83;;;14.56;71.74
74079;BME280;62437;51.544;-3.276;2023-07-16T08:39:09;100257.54;;;12.61;76.51
74079;BME280;62437;51.544;-3.276;2023-07-16T08:41:34;100246.78;;;14.53;72.50
74079;BME280;62437;51.544;-3.276;2023-07-16T08:44:00;100255.99;;;14.47;71.11
74079;BME280;62437;51.544;-3.276;2023-07-16T08:46:26;100255.62;;;15.62;66.73
74079;BME280;62437;51.544;-3.276;2023-07-16T08:48:52;100264.44;;;13.87;74.16
74079;BME280;62437;51.544;-3.276;2023-07-16T08:51:17;100270.33;;;13.41;77.50
74079;BME280;62437;51.544;-3.276;2023-07-16T08:53:42;100262.61;;;14.95;69.12
74079;BME280;62437;51.544;-3.276;2023-07-16T08:56:08;100279.63;;;14.63;71.77
74079;BME280;62437;51.544;-3.276;2023-07-16T08:58:34;100277.04;;;14.11;71.60
74079;BME280;62437;51.544;-3.276;2023-07-16T09:00:59;100281.77;;;13.70;73.07
74079;BME280;62437;51.544;-3.276;2023-07-16T09:03:24;100293.35;;;14.60;70.39
74079;BME280;62437;51.544;-3.276;2023-07-16T09:05:50;100294.84;;;13.60;74.08
74079;BME280;62437;51.544;-3.276;2023-07-16T09:08:16;100294.46;;;14.98;69.03
74079;BME280;62437;51.544;-3.276;2023-07-16T09:10:42;100297.89;;;13.51;72.48
74079;BME280;62437;51.544;-3.276;2023-07-16T09:13:07;100301.79;;;14.29;73.19
74079;BME280;62437;51.544;-3.276;2023-07-16T09:15:33;100304.48;;;13.26;72.93
74079;BME280;62437;51.544;-3.276;2023-07-16T09:17:58;100301.35;;;13.13;72.79
74079;BME280;62437;51.544;-3.276;2023-07-16T09:20:24;100304.45;;;13.72;73.98
74079;BME280;62437;51.544;-3.276;2023-07-16T09:22:49;100303.85;;;13.75;73.53
74079;BME280;62437;51.544;-3.276;2023-07-16T09:25:15;100303.96;;;14.14;71.76
74079;BME280;62437;51.544;-3.276;2023-07-16T09:27:40;100313.47;;;13.27;72.78
74079;BME280;62437;51.544;-3.276;2023-07-16T09:30:14;100320.26;;;12.27;75.77
74079;BME280;62437;51.544;-3.276;2023-07-16T09:32:33;100319.20;;;12.24;77.42
74079;BME280;62437;51.544;-3.276;2023-07-16T09:34:57;100326.25;;;12.32;81.41
74079;BME280;62437;51.544;-3.276;2023-07-16T09:37:23;100319.25;;;13.59;75.09
74079;BME280;62437;51.544;-3.276;2023-07-16T09:39:48;100331.11;;;13.04;76.81
74079;BME280;62437;51.544;-3.276;2023-07-16T09:42:14;100328.88;;;13.17;77.36
74079;BME280;62437;51.544;-3.276;2023-07-16T09:44:40;100325.60;;;13.46;74.88
74079;BME280;62437;51.544;-3.276;2023-07-16T09:47:05;100326.89;;;13.04;78.25
74079;BME280;62437;51.544;-3.276;2023-07-16T09:49:31;100325.54;;;13.53;74.38
74079;BME280;62437;51.544;-3.276;2023-07-16T09:51:57;100318.46;;;13.52;74.37
74079;BME280;62437;51.544;-3.276;2023-07-16T09:54:24;100329.42;;;12.85;76.93
74079;BME280;62437;51.544;-3.276;2023-07-16T09:56:52;100330.57;;;13.28;74.45
74079;BME280;62437;51.544;-3.276;2023-07-16T09:59:15;100331.47;;;13.79;74.43
74079;BME280;62437;51.544;-3.276;2023-07-16T10:01:39;100336.98;;;12.92;74.89
74079;BME280;62437;51.544;-3.276;2023-07-16T10:04:11;100337.38;;;13.35;74.29
74079;BME280;62437;51.544;-3.276;2023-07-16T10:06:30;100341.94;;;13.22;75.44
74079;BME280;62437;51.544;-3.276;2023-07-16T10:08:56;100346.35;;;13.17;76.58
74079;BME280;62437;51.544;-3.276;2023-07-16T10:11:21;100344.46;;;13.63;72.02
74079;BME280;62437;51.544;-3.276;2023-07-16T10:13:50;100346.91;;;13.52;75.68
74079;BME280;62437;51.544;-3.276;2023-07-16T10:16:21;100356.61;;;14.11;72.11
74079;BME280;62437;51.544;-3.276;2023-07-16T10:18:38;100357.90;;;13.92;73.93
74079;BME280;62437;51.544;-3.276;2023-07-16T10:21:05;100359.66;;;14.27;70.18
74079;BME280;62437;51.544;-3.276;2023-07-16T10:23:37;100359.88;;;13.97;74.13
74079;BME280;62437;51.544;-3.276;2023-07-16T10:25:58;100360.52;;;14.91;70.33
74079;BME280;62437;51.544;-3.276;2023-07-16T10:28:20;100368.68;;;14.07;69.32
74079;BME280;62437;51.544;-3.276;2023-07-16T10:30:50;100367.00;;;15.33;67.42
74079;BME280;62437;51.544;-3.276;2023-07-16T10:33:12;100370.91;;;14.69;70.74
74079;BME280;62437;51.544;-3.276;2023-07-16T10:35:41;100376.51;;;14.98;68.37
74079;BME280;62437;51.544;-3.276;2023-07-16T10:38:03;100377.07;;;13.67;71.44
74079;BME280;62437;51.544;-3.276;2023-07-16T10:40:28;100378.30;;;14.17;69.52
74079;BME280;62437;51.544;-3.276;2023-07-16T10:42:54;100378.37;;;15.41;67.14
74079;BME280;62437;51.544;-3.276;2023-07-16T10:45:20;100371.84;;;14.47;66.76
74079;BME280;62437;51.544;-3.276;2023-07-16T10:47:51;100369.80;;;13.88;68.11
74079;BME280;62437;51.544;-3.276;2023-07-16T10:50:11;100374.72;;;14.26;69.79
74079;BME280;62437;51.544;-3.276;2023-07-16T10:52:37;100376.41;;;14.40;68.97
74079;BME280;62437;51.544;-3.276;2023-07-16T10:55:02;100380.74;;;14.89;70.83
74079;BME280;62437;51.544;-3.276;2023-07-16T10:57:28;100378.77;;;13.93;69.83
74079;BME280;62437;51.544;-3.276;2023-07-16T10:59:54;100391.12;;;15.09;69.68
74079;BME280;62437;51.544;-3.276;2023-07-16T11:02:20;100390.26;;;13.47;71.60
74079;BME280;62437;51.544;-3.276;2023-07-16T11:04:46;100388.37;;;13.69;71.97
74079;BME280;62437;51.544;-3.276;2023-07-16T11:07:11;100396.77;;;15.29;69.40
74079;BME280;62437;51.544;-3.276;2023-07-16T11:09:40;100395.13;;;13.57;72.04
74079;BME280;62437;51.544;-3.276;2023-07-16T11:12:07;100395.29;;;14.02;71.60
74079;BME280;62437;51.544;-3.276;2023-07-16T11:14:27;100402.79;;;14.50;71.04
74079;BME280;62437;51.544;-3.276;2023-07-16T11:16:52;100392.49;;;14.85;69.77
74079;BME280;62437;51.544;-3.276;2023-07-16T11:19:21;100404.67;;;14.37;66.17
74079;BME280;62437;51.544;-3.276;2023-07-16T11:21:43;100403.38;;;14.64;66.98
74079;BME280;62437;51.544;-3.276;2023-07-16T11:24:09;100403.69;;;15.15;69.59
74079;BME280;62437;51.544;-3.276;2023-07-16T11:26:34;100414.97;;;13.45;68.24
74079;BME280;62437;51.544;-3.276;2023-07-16T11:29:00;100409.54;;;14.46;66.07
74079;BME280;62437;51.544;-3.276;2023-07-16T11:31:25;100401.93;;;14.49;67.58
74079;BME280;62437;51.544;-3.276;2023-07-16T11:33:51;100407.72;;;14.63;68.33
74079;BME280;62437;51.544;-3.276;2023-07-16T11:36:17;100407.76;;;14.89;67.38
74079;BME280;62437;51.544;-3.276;2023-07-16T11:38:42;100405.06;;;15.20;62.50
74079;BME280;62437;51.544;-3.276;2023-07-16T11:41:08;100412.88;;;15.23;67.35
74079;BME280;62437;51.544;-3.276;2023-07-16T11:43:35;100413.73;;;15.34;62.18
74079;BME280;62437;51.544;-3.276;2023-07-16T11:45:59;100415.26;;;14.89;64.60
74079;BME280;62437;51.544;-3.276;2023-07-16T11:48:24;100418.28;;;15.46;62.63
74079;BME280;62437;51.544;-3.276;2023-07-16T11:50:50;100411.33;;;15.43;64.23
74079;BME280;62437;51.544;-3.276;2023-07-16T11:53:17;100423.70;;;14.82;64.45
74079;BME280;62437;51.544;-3.276;2023-07-16T11:55:41;100425.27;;;14.93;63.90
74079;BME280;62437;51.544;-3.276;2023-07-16T11:58:07;100433.26;;;15.07;60.62
74079;BME280;62437;51.544;-3.276;2023-07-16T12:00:32;100424.25;;;14.66;62.70
74079;BME280;62437;51.544;-3.276;2023-07-16T12:02:58;100430.18;;;14.17;59.90
74079;BME280;62437;51.544;-3.276;2023-07-16T12:05:23;100429.15;;;14.50;60.17
74079;BME280;62437;51.544;-3.276;2023-07-16T12:07:49;100428.73;;;15.54;58.46
74079;BME280;62437;51.544;-3.276;2023-07-16T12:10:14;100430.63;;;14.47;65.12
74079;BME280;62437;51.544;-3.276;2023-07-16T12:12:40;100427.56;;;15.29;60.10
74079;BME280;62437;51.544;-3.276;2023-07-16T12:15:06;100429.07;;;15.29;61.98
74079;BME280;62437;51.544;-3.276;2023-07-16T12:17:31;100433.34;;;14.55;63.22
74079;BME280;62437;51.544;-3.276;2023-07-16T12:19:56;100432.50;;;13.67;60.58
74079;BME280;62437;51.544;-3.276;2023-07-16T12:22:30;100434.01;;;14.45;60.94
74079;BME280;62437;51.544;-3.276;2023-07-16T12:24:48;100437.00;;;14.13;60.96
74079;BME280;62437;51.544;-3.276;2023-07-16T12:27:14;100442.22;;;14.53;62.79
74079;BME280;62437;51.544;-3.276;2023-07-16T12:29:39;100438.06;;;14.67;61.60
74079;BME280;62437;51.544;-3.276;2023-07-16T12:32:05;100442.77;;;15.29;60.60
74079;BME280;62437;51.544;-3.276;2023-07-16T12:34:30;100446.77;;;15.21;58.10
74079;BME280;62437;51.544;-3.276;2023-07-16T12:36:55;100445.73;;;13.99;62.78